sensor_id;sensor_type;location;lat;lon;timestamp;pressure;altitude;pressure_sealevel;temperature;humidity
63552;BME280;49698;48.072;7.800;2024-01-11T00:02:23;100348.47;;;-5.56;99.20
63552;BME280;49698;48.072;7.800;2024-01-11T00:04:52;100351.91;;;-5.55;99.40
63552;BME280;49698;48.072;7.800;2024-01-11T00:07:21;100349.28;;;-5.55;99.62
63552;BME280;49698;48.072;7.800;2024-01-11T00:09:49;100343.06;;;-5.54;98.70
63552;BME280;49698;48.072;7.800;2024-01-11T00:12:17;100349.09;;;-5.54;99.39
63552;BME280;49698;48.072;7.800;2024-01-11T00:14:44;100350.91;;;-5.54;99.18
63552;BME280;49698;48.072;7.800;2024-01-11T00:17:12;100345.53;;;-5.53;98.77
63552;BME280;49698;48.072;7.800;2024-01-11T00:19:40;100355.19;;;-5.53;99.64
63552;BME280;49698;48.072;7.800;2024-01-11T00:22:08;100351.72;;;-5.54;98.88
63552;BME280;49698;48.072;7.800;2024-01-11T00:24:37;100349.97;;;-5.53;98.96
63552;BME280;49698;48.072;7.800;2024-01-11T00:27:05;100348.28;;;-5.54;98.96
63552;BME280;49698;48.072;7.800;2024-01-11T00:29:33;100353.53;;;-5.54;99.53
63552;BME280;49698;48.072;7.800;2024-01-11T00:32:01;100351.91;;;-5.55;98.89
63552;BME280;49698;48.072;7.800;2024-01-11T00:34:29;100348.63;;;-5.57;99.30
63552;BME280;49698;48.072;7.800;2024-01-11T00:36:57;100353.19;;;-5.59;98.56
63552;BME280;49698;48.072;7.800;2024-01-11T00:39:25;100353.47;;;-5.62;98.77
63552;BME280;49698;48.072;7.800;2024-01-11T00:41:54;100349.22;;;-5.63;99.42
63552;BME280;49698;48.072;7.800;2024-01-11T00:44:22;100355.59;;;-5.66;98.63
63552;BME280;49698;48.072;7.800;2024-01-11T00:46:50;100359.19;;;-5.67;98.77
63552;BME280;49698;48.072;7.800;2024-01-11T00:49:18;100347.91;;;-5.68;98.72
63552;BME280;49698;48.072;7.800;2024-01-11T00:51:46;100355.06;;;-5.70;98.87
63552;BME280;49698;48.072;7.800;2024-01-11T00:54:14;100355.25;;;-5.71;98.96
63552;BME280;49698;48.072;7.800;2024-01-11T00:56:42;100360.63;;;-5.73;99.63
63552;BME280;49698;48.072;7.800;2024-01-11T00:59:11;100362.41;;;-5.73;99.81
63552;BME280;49698;48.072;7.800;2024-01-11T01:01:39;100352.09;;;-5.75;99.00
63552;BME280;49698;48.072;7.800;2024-01-11T01:04:07;100361.25;;;-5.79;98.87
63552;BME280;49698;48.072;7.800;2024-01-11T01:06:35;100367.47;;;-5.80;98.82
63552;BME280;49698;48.072;7.800;2024-01-11T01:09:03;100361.53;;;-5.82;99.78
63552;BME280;49698;48.072;7.800;2024-01-11T01:11:31;100372.00;;;-5.82;99.85
63552;BME280;49698;48.072;7.800;2024-01-11T01:14:00;100372.00;;;-5.82;99.33
63552;BME280;49698;48.072;7.800;2024-01-11T01:16:30;100373.81;;;-5.82;99.75
63552;BME280;49698;48.072;7.800;2024-01-11T01:18:57;100369.41;;;-5.82;100.00
63552;BME280;49698;48.072;7.800;2024-01-11T01:21:25;100359.09;;;-5.83;99.68
63552;BME280;49698;48.072;7.800;2024-01-11T01:23:54;100367.06;;;-5.85;99.66
63552;BME280;49698;48.072;7.800;2024-01-11T01:26:22;100369.69;;;-5.85;99.33
63552;BME280;49698;48.072;7.800;2024-01-11T01:28:50;100368.06;;;-5.86;99.33
63552;BME280;49698;48.072;7.800;2024-01-11T01:31:18;100374.28;;;-5.87;99.34
63552;BME280;49698;48.072;7.800;2024-01-11T01:33:47;100374.28;;;-5.87;99.67
63552;BME280;49698;48.072;7.800;2024-01-11T01:36:16;100376.22;;;-5.89;99.89
63552;BME280;49698;48.072;7.800;2024-01-11T01:38:43;100375.56;;;-5.91;99.71
63552;BME280;49698;48.072;7.800;2024-01-11T01:41:12;100376.56;;;-5.92;99.92
63552;BME280;49698;48.072;7.800;2024-01-11T01:43:39;100371.63;;;-5.95;99.25
63552;BME280;49698;48.072;7.800;2024-01-11T01:46:07;100366.69;;;-5.98;99.65
63552;BME280;49698;48.072;7.800;2024-01-11T01:48:36;100366.19;;;-6.02;99.63
63552;BME280;49698;48.072;7.800;2024-01-11T01:51:05;100365.53;;;-6.04;99.74
63552;BME280;49698;48.072;7.800;2024-01-11T01:53:34;100376.13;;;-6.05;99.10
63552;BME280;49698;48.072;7.800;2024-01-11T01:56:02;100372.84;;;-6.07;99.04
63552;BME280;49698;48.072;7.800;2024-01-11T01:58:30;100383.63;;;-6.10;99.31
63552;BME280;49698;48.072;7.800;2024-01-11T02:00:58;100385.88;;;-6.16;98.77
63552;BME280;49698;48.072;7.800;2024-01-11T02:03:27;100386.47;;;-6.22;98.70
63552;BME280;49698;48.072;7.800;2024-01-11T02:05:55;100392.59;;;-6.31;98.68
63552;BME280;49698;48.072;7.800;2024-01-11T02:08:25;100395.44;;;-6.42;97.68
63552;BME280;49698;48.072;7.800;2024-01-11T02:10:53;100392.75;;;-6.50;98.79
63552;BME280;49698;48.072;7.800;2024-01-11T02:13:21;100393.31;;;-6.56;98.06
63552;BME280;49698;48.072;7.800;2024-01-11T02:15:49;100399.13;;;-6.62;98.45
63552;BME280;49698;48.072;7.800;2024-01-11T02:18:17;100396.13;;;-6.68;98.27
63552;BME280;49698;48.072;7.800;2024-01-11T02:20:45;100394.78;;;-6.72;99.42
63552;BME280;49698;48.072;7.800;2024-01-11T02:23:14;100395.75;;;-6.73;98.88
63552;BME280;49698;48.072;7.800;2024-01-11T02:25:46;100399.47;;;-6.75;99.18
63552;BME280;49698;48.072;7.800;2024-01-11T02:28:14;100405.69;;;-6.76;99.59
63552;BME280;49698;48.072;7.800;2024-01-11T02:30:42;100398.94;;;-6.79;99.05
63552;BME280;49698;48.072;7.800;2024-01-11T02:33:10;100405.16;;;-6.80;99.72
63552;BME280;49698;48.072;7.800;2024-01-11T02:35:42;100397.59;;;-6.83;99.61
63552;BME280;49698;48.072;7.800;2024-01-11T02:38:11;100392.66;;;-6.86;99.20
63552;BME280;49698;48.072;7.800;2024-01-11T02:40:39;100393.91;;;-6.90;99.04
63552;BME280;49698;48.072;7.800;2024-01-11T02:43:09;100401.75;;;-6.90;98.85
63552;BME280;49698;48.072;7.800;2024-01-11T02:45:37;100400.13;;;-6.91;99.60
63552;BME280;49698;48.072;7.800;2024-01-11T02:48:05;100395.72;;;-6.91;99.75
63552;BME280;49698;48.072;7.800;2024-01-11T02:50:33;100386.06;;;-6.90;99.78
63552;BME280;49698;48.072;7.800;2024-01-11T02:53:01;100392.00;;;-6.88;99.73
63552;BME280;49698;48.072;7.800;2024-01-11T02:55:29;100391.69;;;-6.85;99.40
63552;BME280;49698;48.072;7.800;2024-01-11T02:57:57;100396.63;;;-6.82;99.30
63552;BME280;49698;48.072;7.800;2024-01-11T03:00:27;100395.34;;;-6.78;100.00
63552;BME280;49698;48.072;7.800;2024-01-11T03:02:55;100387.22;;;-6.75;100.00
63552;BME280;49698;48.072;7.800;2024-01-11T03:05:22;100389.41;;;-6.70;99.63
63552;BME280;49698;48.072;7.800;2024-01-11T03:07:50;100379.78;;;-6.70;100.00
63552;BME280;49698;48.072;7.800;2024-01-11T03:10:18;100383.06;;;-6.68;99.50
63552;BME280;49698;48.072;7.800;2024-01-11T03:12:47;100385.69;;;-6.68;99.45
63552;BME280;49698;48.072;7.800;2024-01-11T03:15:15;100386.50;;;-6.67;99.13
63552;BME280;49698;48.072;7.800;2024-01-11T03:17:44;100377.00;;;-6.68;99.45
63552;BME280;49698;48.072;7.800;2024-01-11T03:20:12;100378.00;;;-6.69;98.98
63552;BME280;49698;48.072;7.800;2024-01-11T03:22:44;100388.44;;;-6.69;98.72
63552;BME280;49698;48.072;7.800;2024-01-11T03:25:12;100385.69;;;-6.68;99.02
63552;BME280;49698;48.072;7.800;2024-01-11T03:27:40;100380.44;;;-6.68;98.63
63552;BME280;49698;48.072;7.800;2024-01-11T03:30:08;100382.91;;;-6.66;99.00
63552;BME280;49698;48.072;7.800;2024-01-11T03:32:37;100378.53;;;-6.66;99.29
63552;BME280;49698;48.072;7.800;2024-01-11T03:35:07;100381.25;;;-6.67;98.48
63552;BME280;49698;48.072;7.800;2024-01-11T03:37:35;100373.56;;;-6.69;98.87
63552;BME280;49698;48.072;7.800;2024-01-11T03:40:03;100376.66;;;-6.73;98.88
63552;BME280;49698;48.072;7.800;2024-01-11T03:42:31;100384.09;;;-6.78;98.59
63552;BME280;49698;48.072;7.800;2024-01-11T03:44:59;100379.13;;;-6.81;98.63
63552;BME280;49698;48.072;7.800;2024-01-11T03:47:27;100378.63;;;-6.85;98.29
63552;BME280;49698;48.072;7.800;2024-01-11T03:49:55;100378.91;;;-6.88;98.74
63552;BME280;49698;48.072;7.800;2024-01-11T03:52:24;100386.06;;;-6.90;98.63
63552;BME280;49698;48.072;7.800;2024-01-11T03:54:52;100378.22;;;-6.90;98.92
63552;BME280;49698;48.072;7.800;2024-01-11T03:57:20;100383.47;;;-6.90;98.90
63552;BME280;49698;48.072;7.800;2024-01-11T03:59:48;100381.66;;;-6.90;98.64
63552;BME280;49698;48.072;7.800;2024-01-11T04:02:16;100377.13;;;-6.87;99.40
63552;BME280;49698;48.072;7.800;2024-01-11T04:04:44;100376.97;;;-6.86;98.69
63552;BME280;49698;48.072;7.800;2024-01-11T04:07:12;100373.41;;;-6.85;99.54
63552;BME280;49698;48.072;7.800;2024-01-11T04:09:41;100381.91;;;-6.83;99.13
63552;BME280;49698;48.072;7.800;2024-01-11T04:12:09;100384.38;;;-6.81;99.42
63552;BME280;49698;48.072;7.800;2024-01-11T04:14:37;100383.53;;;-6.82;98.99
63552;BME280;49698;48.072;7.800;2024-01-11T04:17:06;100372.56;;;-6.85;98.97
63552;BME280;49698;48.072;7.800;2024-01-11T04:19:34;100377.94;;;-6.87;98.31
63552;BME280;49698;48.072;7.800;2024-01-11T04:22:01;100380.84;;;-6.90;98.77
63552;BME280;49698;48.072;7.800;2024-01-11T04:24:29;100380.47;;;-6.95;98.02
63552;BME280;49698;48.072;7.800;2024-01-11T04:26:59;100379.94;;;-6.99;98.27
63552;BME280;49698;48.072;7.800;2024-01-11T04:29:27;100375.97;;;-7.03;98.08
63552;BME280;49698;48.072;7.800;2024-01-11T04:31:54;100383.97;;;-7.04;98.52
63552;BME280;49698;48.072;7.800;2024-01-11T04:34:22;100383.13;;;-7.05;98.44
63552;BME280;49698;48.072;7.800;2024-01-11T04:36:50;100382.28;;;-7.05;98.86
63552;BME280;49698;48.072;7.800;2024-01-11T04:39:18;100380.66;;;-7.06;98.70
63552;BME280;49698;48.072;7.800;2024-01-11T04:41:46;100375.44;;;-7.06;98.52
63552;BME280;49698;48.072;7.800;2024-01-11T04:44:15;100376.13;;;-7.04;99.51
63552;BME280;49698;48.072;7.800;2024-01-11T04:46:43;100382.00;;;-7.02;98.60
63552;BME280;49698;48.072;7.800;2024-01-11T04:49:11;100379.25;;;-7.01;98.54
63552;BME280;49698;48.072;7.800;2024-01-11T04:51:39;100378.28;;;-7.00;98.87
63552;BME280;49698;48.072;7.800;2024-01-11T04:54:07;100386.78;;;-6.98;98.83
63552;BME280;49698;48.072;7.800;2024-01-11T04:56:35;100383.38;;;-6.98;98.75
63552;BME280;49698;48.072;7.800;2024-01-11T04:59:03;100380.63;;;-6.97;98.94
63552;BME280;49698;48.072;7.800;2024-01-11T05:01:32;100378.97;;;-6.98;98.69
63552;BME280;49698;48.072;7.800;2024-01-11T05:04:00;100378.28;;;-7.00;98.79
63552;BME280;49698;48.072;7.800;2024-01-11T05:06:28;100369.75;;;-7.02;98.28
63552;BME280;49698;48.072;7.800;2024-01-11T05:08:56;100374.31;;;-7.04;98.20
63552;BME280;49698;48.072;7.800;2024-01-11T05:11:24;100376.41;;;-7.07;98.16
63552;BME280;49698;48.072;7.800;2024-01-11T05:13:53;100376.00;;;-7.13;97.89
63552;BME280;49698;48.072;7.800;2024-01-11T05:16:21;100376.31;;;-7.16;98.25
63552;BME280;49698;48.072;7.800;2024-01-11T05:18:51;100373.00;;;-7.18;98.49
63552;BME280;49698;48.072;7.800;2024-01-11T05:21:19;100377.41;;;-7.18;98.38
63552;BME280;49698;48.072;7.800;2024-01-11T05:23:46;100372.34;;;-7.20;98.53
63552;BME280;49698;48.072;7.800;2024-01-11T05:26:15;100381.28;;;-7.22;98.67
63552;BME280;49698;48.072;7.800;2024-01-11T05:28:43;100380.59;;;-7.24;98.15
63552;BME280;49698;48.072;7.800;2024-01-11T05:31:12;100378.81;;;-7.24;98.87
63552;BME280;49698;48.072;7.800;2024-01-11T05:33:41;100370.81;;;-7.22;98.66
63552;BME280;49698;48.072;7.800;2024-01-11T05:36:11;100383.72;;;-7.21;98.93
63552;BME280;49698;48.072;7.800;2024-01-11T05:38:39;100390.31;;;-7.17;98.88
63552;BME280;49698;48.072;7.800;2024-01-11T05:41:07;100384.16;;;-7.16;99.06
63552;BME280;49698;48.072;7.800;2024-01-11T05:43:36;100382.63;;;-7.18;99.04
63552;BME280;49698;48.072;7.800;2024-01-11T05:46:05;100384.56;;;-7.20;98.64
63552;BME280;49698;48.072;7.800;2024-01-11T05:48:36;100382.09;;;-7.22;98.46
63552;BME280;49698;48.072;7.800;2024-01-11T05:51:04;100379.63;;;-7.23;98.17
63552;BME280;49698;48.072;7.800;2024-01-11T05:53:34;100389.28;;;-7.24;98.07
63552;BME280;49698;48.072;7.800;2024-01-11T05:56:06;100385.16;;;-7.26;97.91
63552;BME280;49698;48.072;7.800;2024-01-11T05:58:34;100387.06;;;-7.28;97.93
63552;BME280;49698;48.072;7.800;2024-01-11T06:01:03;100397.66;;;-7.30;98.06
63552;BME280;49698;48.072;7.800;2024-01-11T06:03:31;100401.25;;;-7.31;98.19
63552;BME280;49698;48.072;7.800;2024-01-11T06:06:01;100400.44;;;-7.31;98.31
63552;BME280;49698;48.072;7.800;2024-01-11T06:08:29;100404.97;;;-7.33;98.60
63552;BME280;49698;48.072;7.800;2024-01-11T06:10:59;100399.59;;;-7.32;98.67
63552;BME280;49698;48.072;7.800;2024-01-11T06:13:27;100404.00;;;-7.32;98.53
63552;BME280;49698;48.072;7.800;2024-01-11T06:15:55;100402.50;;;-7.35;98.03
63552;BME280;49698;48.072;7.800;2024-01-11T06:18:23;100409.91;;;-7.40;98.07
63552;BME280;49698;48.072;7.800;2024-01-11T06:20:51;100418.34;;;-7.46;98.07
63552;BME280;49698;48.072;7.800;2024-01-11T06:23:19;100415.31;;;-7.51;97.65
63552;BME280;49698;48.072;7.800;2024-01-11T06:25:47;100420.97;;;-7.56;97.82
63552;BME280;49698;48.072;7.800;2024-01-11T06:28:17;100422.34;;;-7.61;98.10
63552;BME280;49698;48.072;7.800;2024-01-11T06:30:44;100414.94;;;-7.66;97.87
63552;BME280;49698;48.072;7.800;2024-01-11T06:33:12;100423.06;;;-7.69;98.14
63552;BME280;49698;48.072;7.800;2024-01-11T06:35:40;100422.50;;;-7.73;97.80
63552;BME280;49698;48.072;7.800;2024-01-11T06:38:08;100421.97;;;-7.76;97.77
63552;BME280;49698;48.072;7.800;2024-01-11T06:40:36;100427.34;;;-7.78;98.13
63552;BME280;49698;48.072;7.800;2024-01-11T06:43:04;100428.28;;;-7.79;97.95
63552;BME280;49698;48.072;7.800;2024-01-11T06:45:33;100435.28;;;-7.79;98.18
63552;BME280;49698;48.072;7.800;2024-01-11T06:48:01;100425.97;;;-7.82;98.23
63552;BME280;49698;48.072;7.800;2024-01-11T06:50:30;100429.50;;;-7.83;98.21
63552;BME280;49698;48.072;7.800;2024-01-11T06:53:01;100426.91;;;-7.83;98.45
63552;BME280;49698;48.072;7.800;2024-01-11T06:55:29;100435.69;;;-7.84;97.83
63552;BME280;49698;48.072;7.800;2024-01-11T06:58:00;100442.84;;;-7.86;97.98
63552;BME280;49698;48.072;7.800;2024-01-11T07:00:28;100439.41;;;-7.87;98.33
63552;BME280;49698;48.072;7.800;2024-01-11T07:03:00;100435.00;;;-7.86;98.15
63552;BME280;49698;48.072;7.800;2024-01-11T07:05:29;100436.69;;;-7.85;98.11
63552;BME280;49698;48.072;7.800;2024-01-11T07:07:57;100439.94;;;-7.83;98.41
63552;BME280;49698;48.072;7.800;2024-01-11T07:10:25;100434.47;;;-7.80;98.69
63552;BME280;49698;48.072;7.800;2024-01-11T07:12:53;100441.06;;;-7.76;98.54
63552;BME280;49698;48.072;7.800;2024-01-11T07:15:21;100438.16;;;-7.73;98.52
63552;BME280;49698;48.072;7.800;2024-01-11T07:17:50;100445.72;;;-7.70;98.57
63552;BME280;49698;48.072;7.800;2024-01-11T07:20:21;100445.44;;;-7.67;98.41
63552;BME280;49698;48.072;7.800;2024-01-11T07:22:50;100451.34;;;-7.65;98.42
63552;BME280;49698;48.072;7.800;2024-01-11T07:25:18;100447.66;;;-7.62;98.58
63552;BME280;49698;48.072;7.800;2024-01-11T07:27:46;100455.06;;;-7.57;98.38
63552;BME280;49698;48.072;7.800;2024-01-11T07:30:14;100450.66;;;-7.57;97.91
63552;BME280;49698;48.072;7.800;2024-01-11T07:32:42;100457.50;;;-7.56;97.93
63552;BME280;49698;48.072;7.800;2024-01-11T07:35:10;100450.66;;;-7.57;97.60
63552;BME280;49698;48.072;7.800;2024-01-11T07:37:40;100451.75;;;-7.59;97.50
63552;BME280;49698;48.072;7.800;2024-01-11T07:40:09;100456.16;;;-7.60;97.80
63552;BME280;49698;48.072;7.800;2024-01-11T07:42:37;100464.78;;;-7.59;97.84
63552;BME280;49698;48.072;7.800;2024-01-11T07:45:06;100463.84;;;-7.58;98.08
63552;BME280;49698;48.072;7.800;2024-01-11T07:47:37;100459.44;;;-7.58;97.89
63552;BME280;49698;48.072;7.800;2024-01-11T07:50:05;100466.03;;;-7.64;97.10
63552;BME280;49698;48.072;7.800;2024-01-11T07:52:34;100470.44;;;-7.64;97.07
63552;BME280;49698;48.072;7.800;2024-01-11T07:55:04;100478.69;;;-7.69;96.83
63552;BME280;49698;48.072;7.800;2024-01-11T07:57:34;100473.75;;;-7.72;97.01
63552;BME280;49698;48.072;7.800;2024-01-11T08:00:02;100473.19;;;-7.75;96.75
63552;BME280;49698;48.072;7.800;2024-01-11T08:02:38;100473.34;;;-7.77;97.03
63552;BME280;49698;48.072;7.800;2024-01-11T08:05:06;100484.44;;;-7.75;97.18
63552;BME280;49698;48.072;7.800;2024-01-11T08:07:34;100487.75;;;-7.73;97.30
63552;BME280;49698;48.072;7.800;2024-01-11T08:10:02;100486.53;;;-7.69;97.09
63552;BME280;49698;48.072;7.800;2024-01-11T08:12:31;100486.09;;;-7.64;97.36
63552;BME280;49698;48.072;7.800;2024-01-11T08:14:59;100494.06;;;-7.56;97.65
63552;BME280;49698;48.072;7.800;2024-01-11T08:17:27;100491.88;;;-7.51;96.97
63552;BME280;49698;48.072;7.800;2024-01-11T08:19:55;100500.66;;;-7.42;97.15
63552;BME280;49698;48.072;7.800;2024-01-11T08:22:23;100498.72;;;-7.30;96.98
63552;BME280;49698;48.072;7.800;2024-01-11T08:24:52;100505.56;;;-7.20;96.39
63552;BME280;49698;48.072;7.800;2024-01-11T08:27:20;100503.75;;;-7.09;96.66
63552;BME280;49698;48.072;7.800;2024-01-11T08:29:49;100502.06;;;-7.01;96.39
63552;BME280;49698;48.072;7.800;2024-01-11T08:32:17;100501.06;;;-6.90;95.91
63552;BME280;49698;48.072;7.800;2024-01-11T08:34:45;100502.84;;;-6.81;95.19
63552;BME280;49698;48.072;7.800;2024-01-11T08:37:13;100507.91;;;-6.70;94.83
63552;BME280;49698;48.072;7.800;2024-01-11T08:39:41;100510.63;;;-6.61;94.60
63552;BME280;49698;48.072;7.800;2024-01-11T08:42:09;100504.50;;;-6.52;94.42
63552;BME280;49698;48.072;7.800;2024-01-11T08:44:40;100517.03;;;-6.46;94.02
63552;BME280;49698;48.072;7.800;2024-01-11T08:47:10;100511.06;;;-6.38;94.78
63552;BME280;49698;48.072;7.800;2024-01-11T08:49:38;100507.72;;;-6.31;93.79
63552;BME280;49698;48.072;7.800;2024-01-11T08:52:07;100499.97;;;-6.23;94.57
63552;BME280;49698;48.072;7.800;2024-01-11T08:54:35;100510.22;;;-6.11;94.38
63552;BME280;49698;48.072;7.800;2024-01-11T08:57:03;100508.34;;;-6.01;94.33
63552;BME280;49698;48.072;7.800;2024-01-11T08:59:31;100495.53;;;-5.86;94.21
63552;BME280;49698;48.072;7.800;2024-01-11T09:01:59;100495.84;;;-5.72;93.34
63552;BME280;49698;48.072;7.800;2024-01-11T09:04:29;100509.06;;;-5.55;93.42
63552;BME280;49698;48.072;7.800;2024-01-11T09:06:57;100511.97;;;-5.41;92.92
63552;BME280;49698;48.072;7.800;2024-01-11T09:09:25;100513.53;;;-5.30;93.32
63552;BME280;49698;48.072;7.800;2024-01-11T09:11:52;100512.31;;;-5.18;92.96
63552;BME280;49698;48.072;7.800;2024-01-11T09:14:20;100513.00;;;-5.07;92.40
63552;BME280;49698;48.072;7.800;2024-01-11T09:16:49;100512.09;;;-4.98;92.00
63552;BME280;49698;48.072;7.800;2024-01-11T09:19:17;100515.59;;;-4.89;91.92
63552;BME280;49698;48.072;7.800;2024-01-11T09:21:46;100519.25;;;-4.82;91.59
63552;BME280;49698;48.072;7.800;2024-01-11T09:24:14;100515.50;;;-4.80;91.39
63552;BME280;49698;48.072;7.800;2024-01-11T09:26:42;100513.53;;;-4.78;92.26
63552;BME280;49698;48.072;7.800;2024-01-11T09:29:10;100515.53;;;-4.72;92.30
63552;BME280;49698;48.072;7.800;2024-01-11T09:31:38;100524.44;;;-4.64;92.51
63552;BME280;49698;48.072;7.800;2024-01-11T09:34:06;100519.03;;;-4.55;92.09
63552;BME280;49698;48.072;7.800;2024-01-11T09:36:34;100522.53;;;-4.46;91.84
63552;BME280;49698;48.072;7.800;2024-01-11T09:39:06;100525.84;;;-4.36;92.10
63552;BME280;49698;48.072;7.800;2024-01-11T09:41:35;100527.53;;;-4.27;91.49
63552;BME280;49698;48.072;7.800;2024-01-11T09:44:04;100536.09;;;-4.16;91.91
63552;BME280;49698;48.072;7.800;2024-01-11T09:46:32;100543.34;;;-4.10;91.36
63552;BME280;49698;48.072;7.800;2024-01-11T09:49:00;100545.00;;;-4.01;91.70
63552;BME280;49698;48.072;7.800;2024-01-11T09:51:30;100533.69;;;-3.94;91.38
63552;BME280;49698;48.072;7.800;2024-01-11T09:53:59;100547.97;;;-3.88;91.04
63552;BME280;49698;48.072;7.800;2024-01-11T09:56:28;100552.91;;;-3.85;91.28
63552;BME280;49698;48.072;7.800;2024-01-11T09:58:56;100556.22;;;-3.83;91.33
63552;BME280;49698;48.072;7.800;2024-01-11T10:01:24;100561.13;;;-3.80;91.61
63552;BME280;49698;48.072;7.800;2024-01-11T10:03:52;100559.34;;;-3.79;91.43
63552;BME280;49698;48.072;7.800;2024-01-11T10:06:22;100548.16;;;-3.81;91.43
63552;BME280;49698;48.072;7.800;2024-01-11T10:08:51;100545.06;;;-3.77;91.75
63552;BME280;49698;48.072;7.800;2024-01-11T10:11:19;100542.13;;;-3.74;91.74
63552;BME280;49698;48.072;7.800;2024-01-11T10:13:48;100542.44;;;-3.69;91.73
63552;BME280;49698;48.072;7.800;2024-01-11T10:16:23;100537.53;;;-3.63;91.56
63552;BME280;49698;48.072;7.800;2024-01-11T10:18:53;100531.63;;;-3.57;91.62
63552;BME280;49698;48.072;7.800;2024-01-11T10:21:21;100527.19;;;-3.49;91.34
63552;BME280;49698;48.072;7.800;2024-01-11T10:23:50;100520.13;;;-3.40;91.68
63552;BME280;49698;48.072;7.800;2024-01-11T10:26:18;100513.25;;;-3.33;91.28
63552;BME280;49698;48.072;7.800;2024-01-11T10:28:49;100511.72;;;-3.19;91.46
63552;BME280;49698;48.072;7.800;2024-01-11T10:31:17;100505.81;;;-3.05;90.73
63552;BME280;49698;48.072;7.800;2024-01-11T10:33:45;100512.19;;;-2.91;90.36
63552;BME280;49698;48.072;7.800;2024-01-11T10:36:13;100499.66;;;-2.81;89.89
63552;BME280;49698;48.072;7.800;2024-01-11T10:38:41;100500.31;;;-2.71;89.53
63552;BME280;49698;48.072;7.800;2024-01-11T10:41:09;100500.56;;;-2.57;89.83
63552;BME280;49698;48.072;7.800;2024-01-11T10:43:39;100498.72;;;-2.49;89.21
63552;BME280;49698;48.072;7.800;2024-01-11T10:46:10;100490.69;;;-2.47;88.79
63552;BME280;49698;48.072;7.800;2024-01-11T10:48:38;100494.16;;;-2.55;88.35
63552;BME280;49698;48.072;7.800;2024-01-11T10:51:08;100494.16;;;-2.55;89.17
63552;BME280;49698;48.072;7.800;2024-01-11T10:53:41;100488.22;;;-2.57;88.37
63552;BME280;49698;48.072;7.800;2024-01-11T10:56:09;100484.16;;;-2.59;88.69
63552;BME280;49698;48.072;7.800;2024-01-11T10:58:39;100494.50;;;-2.58;88.34
63552;BME280;49698;48.072;7.800;2024-01-11T11:01:07;100493.69;;;-2.58;88.44
63552;BME280;49698;48.072;7.800;2024-01-11T11:03:39;100491.03;;;-2.58;88.55
63552;BME280;49698;48.072;7.800;2024-01-11T11:06:09;100485.94;;;-2.60;89.19
63552;BME280;49698;48.072;7.800;2024-01-11T11:08:39;100497.31;;;-2.59;88.49
63552;BME280;49698;48.072;7.800;2024-01-11T11:11:07;100486.13;;;-2.61;88.66
63552;BME280;49698;48.072;7.800;2024-01-11T11:13:35;100483.81;;;-2.64;88.66
63552;BME280;49698;48.072;7.800;2024-01-11T11:16:06;100478.56;;;-2.64;89.08
63552;BME280;49698;48.072;7.800;2024-01-11T11:18:36;100469.66;;;-2.63;88.57
63552;BME280;49698;48.072;7.800;2024-01-11T11:21:08;100465.72;;;-2.59;88.44
63552;BME280;49698;48.072;7.800;2024-01-11T11:23:38;100476.56;;;-2.54;89.02
63552;BME280;49698;48.072;7.800;2024-01-11T11:26:13;100480.97;;;-2.47;88.81
63552;BME280;49698;48.072;7.800;2024-01-11T11:28:41;100473.53;;;-2.43;88.58
63552;BME280;49698;48.072;7.800;2024-01-11T11:31:10;100471.72;;;-2.42;88.31
63552;BME280;49698;48.072;7.800;2024-01-11T11:33:38;100473.22;;;-2.40;88.03
63552;BME280;49698;48.072;7.800;2024-01-11T11:36:09;100468.56;;;-2.38;88.01
63552;BME280;49698;48.072;7.800;2024-01-11T11:38:39;100478.78;;;-2.35;88.57
63552;BME280;49698;48.072;7.800;2024-01-11T11:41:07;100481.06;;;-2.32;88.63
63552;BME280;49698;48.072;7.800;2024-01-11T11:43:37;100479.72;;;-2.28;87.79
63552;BME280;49698;48.072;7.800;2024-01-11T11:46:08;100478.72;;;-2.27;88.20
63552;BME280;49698;48.072;7.800;2024-01-11T11:48:48;100479.53;;;-2.26;87.83
63552;BME280;49698;48.072;7.800;2024-01-11T11:51:19;100484.00;;;-2.27;87.93
63552;BME280;49698;48.072;7.800;2024-01-11T11:53:48;100487.91;;;-2.23;87.86
63552;BME280;49698;48.072;7.800;2024-01-11T11:56:17;100487.56;;;-2.19;87.81
63552;BME280;49698;48.072;7.800;2024-01-11T11:58:48;100481.59;;;-2.13;87.58
63552;BME280;49698;48.072;7.800;2024-01-11T12:01:19;100475.66;;;-2.07;87.10
63552;BME280;49698;48.072;7.800;2024-01-11T12:03:47;100480.88;;;-1.99;87.24
63552;BME280;49698;48.072;7.800;2024-01-11T12:06:17;100485.59;;;-1.94;87.20
63552;BME280;49698;48.072;7.800;2024-01-11T12:08:49;100465.34;;;-1.94;87.04
63552;BME280;49698;48.072;7.800;2024-01-11T12:11:20;100457.09;;;-1.91;86.99
63552;BME280;49698;48.072;7.800;2024-01-11T12:13:49;100454.13;;;-1.88;86.44
63552;BME280;49698;48.072;7.800;2024-01-11T12:16:17;100448.84;;;-1.88;87.05
63552;BME280;49698;48.072;7.800;2024-01-11T12:18:45;100463.66;;;-1.87;86.30
63552;BME280;49698;48.072;7.800;2024-01-11T12:21:14;100462.31;;;-1.83;86.48
63552;BME280;49698;48.072;7.800;2024-01-11T12:23:42;100463.59;;;-1.79;86.40
63552;BME280;49698;48.072;7.800;2024-01-11T12:26:12;100463.25;;;-1.76;86.24
63552;BME280;49698;48.072;7.800;2024-01-11T12:28:41;100462.91;;;-1.73;86.07
63552;BME280;49698;48.072;7.800;2024-01-11T12:31:11;100470.28;;;-1.68;85.98
63552;BME280;49698;48.072;7.800;2024-01-11T12:33:40;100471.75;;;-1.65;86.14
63552;BME280;49698;48.072;7.800;2024-01-11T12:36:09;100465.28;;;-1.63;86.14
63552;BME280;49698;48.072;7.800;2024-01-11T12:38:37;100467.75;;;-1.61;86.00
63552;BME280;49698;48.072;7.800;2024-01-11T12:41:06;100472.22;;;-1.62;86.04
63552;BME280;49698;48.072;7.800;2024-01-11T12:43:35;100465.94;;;-1.61;86.25
63552;BME280;49698;48.072;7.800;2024-01-11T12:46:03;100461.13;;;-1.57;86.39
63552;BME280;49698;48.072;7.800;2024-01-11T12:48:31;100465.31;;;-1.48;86.17
63552;BME280;49698;48.072;7.800;2024-01-11T12:50:59;100459.34;;;-1.42;86.27
63552;BME280;49698;48.072;7.800;2024-01-11T12:53:31;100454.00;;;-1.34;85.61
63552;BME280;49698;48.072;7.800;2024-01-11T12:56:02;100447.19;;;-1.28;85.85
63552;BME280;49698;48.072;7.800;2024-01-11T12:58:38;100439.38;;;-1.21;85.53